sensor_id;sensor_type;location;lat;lon;timestamp;P1;durP1;ratioP1;P2;durP2;ratioP2
59512;SDS011;45330;51.634;5.562;2023-01-19T00:00:59;25.27;;;13.50;;
59512;SDS011;45330;51.634;5.562;2023-01-19T00:03:25;27.88;;;13.35;;
59512;SDS011;45330;51.634;5.562;2023-01-19T00:05:50;26.88;;;14.48;;
59512;SDS011;45330;51.634;5.562;2023-01-19T00:08:16;27.10;;;14.07;;
59512;SDS011;45330;51.634;5.562;2023-01-19T00:10:43;25.10;;;13.55;;
59512;SDS011;45330;51.634;5.562;2023-01-19T00:13:10;26.15;;;13.43;;
59512;SDS011;45330;51.634;5.562;2023-01-19T00:15:36;25.17;;;13.13;;
59512;SDS011;45330;51.634;5.562;2023-01-19T00:18:01;28.20;;;14.43;;
59512;SDS011;45330;51.634;5.562;2023-01-19T00:20:27;27.05;;;14.90;;
59512;SDS011;45330;51.634;5.562;2023-01-19T00:22:54;30.48;;;15.38;;
59512;SDS011;45330;51.634;5.562;2023-01-19T00:25:19;25.92;;;14.45;;
59512;SDS011;45330;51.634;5.562;2023-01-19T00:27:45;29.85;;;15.18;;
59512;SDS011;45330;51.634;5.562;2023-01-19T00:30:13;26.50;;;14.77;;
59512;SDS011;45330;51.634;5.562;2023-01-19T00:32:39;28.45;;;15.32;;
59512;SDS011;45330;51.634;5.562;2023-01-19T00:35:05;26.98;;;15.27;;
59512;SDS011;45330;51.634;5.562;2023-01-19T00:37:30;30.98;;;15.65;;
59512;SDS011;45330;51.634;5.562;2023-01-19T00:39:56;26.48;;;14.07;;
59512;SDS011;45330;51.634;5.562;2023-01-19T00:42:21;27.15;;;13.77;;
59512;SDS011;45330;51.634;5.562;2023-01-19T00:45:08;29.90;;;15.27;;
59512;SDS011;45330;51.634;5.562;2023-01-19T00:47:35;27.02;;;14.80;;
59512;SDS011;45330;51.634;5.562;2023-01-19T00:50:01;26.58;;;14.13;;
59512;SDS011;45330;51.634;5.562;2023-01-19T00:52:27;30.85;;;15.50;;
59512;SDS011;45330;51.634;5.562;2023-01-19T00:54:52;29.52;;;15.20;;
59512;SDS011;45330;51.634;5.562;2023-01-19T00:57:17;29.75;;;14.70;;
59512;SDS011;45330;51.634;5.562;2023-01-19T00:59:43;28.35;;;15.32;;
59512;SDS011;45330;51.634;5.562;2023-01-19T01:02:09;30.73;;;15.98;;
59512;SDS011;45330;51.634;5.562;2023-01-19T01:04:35;29.13;;;15.52;;
59512;SDS011;45330;51.634;5.562;2023-01-19T01:07:01;27.77;;;15.25;;
59512;SDS011;45330;51.634;5.562;2023-01-19T01:09:27;28.60;;;15.15;;
59512;SDS011;45330;51.634;5.562;2023-01-19T01:11:52;29.25;;;16.02;;
59512;SDS011;45330;51.634;5.562;2023-01-19T01:14:17;29.02;;;15.00;;
59512;SDS011;45330;51.634;5.562;2023-01-19T01:16:43;29.92;;;15.52;;
59512;SDS011;45330;51.634;5.562;2023-01-19T01:19:08;30.80;;;15.98;;
59512;SDS011;45330;51.634;5.562;2023-01-19T01:21:34;29.20;;;14.80;;
59512;SDS011;45330;51.634;5.562;2023-01-19T01:24:01;28.10;;;14.85;;
59512;SDS011;45330;51.634;5.562;2023-01-19T01:26:26;28.90;;;16.48;;
59512;SDS011;45330;51.634;5.562;2023-01-19T01:28:52;29.77;;;15.45;;
59512;SDS011;45330;51.634;5.562;2023-01-19T01:31:17;28.42;;;14.15;;
59512;SDS011;45330;51.634;5.562;2023-01-19T01:33:42;28.77;;;14.68;;
59512;SDS011;45330;51.634;5.562;2023-01-19T01:36:08;26.67;;;14.45;;
59512;SDS011;45330;51.634;5.562;2023-01-19T01:38:35;28.95;;;14.63;;
59512;SDS011;45330;51.634;5.562;2023-01-19T01:41:01;27.17;;;14.38;;
59512;SDS011;45330;51.634;5.562;2023-01-19T01:43:39;26.50;;;14.05;;
59512;SDS011;45330;51.634;5.562;2023-01-19T01:46:06;27.70;;;13.93;;
59512;SDS011;45330;51.634;5.562;2023-01-19T01:48:32;28.40;;;13.27;;
59512;SDS011;45330;51.634;5.562;2023-01-19T01:53:42;26.73;;;13.40;;
59512;SDS011;45330;51.634;5.562;2023-01-19T01:56:11;28.67;;;13.82;;
59512;SDS011;45330;51.634;5.562;2023-01-19T01:58:40;27.25;;;13.15;;
59512;SDS011;45330;51.634;5.562;2023-01-19T02:01:06;26.58;;;12.82;;
59512;SDS011;45330;51.634;5.562;2023-01-19T02:03:50;27.25;;;13.52;;
59512;SDS011;45330;51.634;5.562;2023-01-19T02:06:17;23.80;;;11.57;;
59512;SDS011;45330;51.634;5.562;2023-01-19T02:08:45;29.33;;;13.48;;
59512;SDS011;45330;51.634;5.562;2023-01-19T02:11:33;26.03;;;12.37;;
59512;SDS011;45330;51.634;5.562;2023-01-19T02:14:18;26.45;;;12.98;;
59512;SDS011;45330;51.634;5.562;2023-01-19T02:16:44;27.40;;;12.48;;
59512;SDS011;45330;51.634;5.562;2023-01-19T02:19:11;25.15;;;12.02;;
59512;SDS011;45330;51.634;5.562;2023-01-19T02:21:43;26.33;;;11.88;;
59512;SDS011;45330;51.634;5.562;2023-01-19T02:24:16;25.38;;;12.70;;
59512;SDS011;45330;51.634;5.562;2023-01-19T02:26:43;25.50;;;11.65;;
59512;SDS011;45330;51.634;5.562;2023-01-19T02:29:11;25.35;;;12.60;;
59512;SDS011;45330;51.634;5.562;2023-01-19T02:31:40;25.33;;;13.00;;
59512;SDS011;45330;51.634;5.562;2023-01-19T02:34:07;27.33;;;14.85;;
59512;SDS011;45330;51.634;5.562;2023-01-19T02:39:25;27.63;;;13.32;;
59512;SDS011;45330;51.634;5.562;2023-01-19T02:41:58;26.50;;;13.70;;
59512;SDS011;45330;51.634;5.562;2023-01-19T02:44:27;26.73;;;14.10;;
59512;SDS011;45330;51.634;5.562;2023-01-19T02:46:54;28.85;;;14.73;;
59512;SDS011;45330;51.634;5.562;2023-01-19T02:49:20;26.65;;;14.68;;
59512;SDS011;45330;51.634;5.562;2023-01-19T02:51:45;30.25;;;15.65;;
59512;SDS011;45330;51.634;5.562;2023-01-19T03:00:01;32.85;;;18.95;;
59512;SDS011;45330;51.634;5.562;2023-01-19T03:08:57;34.95;;;18.65;;
59512;SDS011;45330;51.634;5.562;2023-01-19T03:11:26;34.42;;;19.08;;
59512;SDS011;45330;51.634;5.562;2023-01-19T03:16:44;36.50;;;20.52;;
59512;SDS011;45330;51.634;5.562;2023-01-19T03:19:21;36.20;;;21.30;;
59512;SDS011;45330;51.634;5.562;2023-01-19T03:22:02;33.30;;;19.17;;
59512;SDS011;45330;51.634;5.562;2023-01-19T03:24:32;35.47;;;20.38;;
59512;SDS011;45330;51.634;5.562;2023-01-19T03:27:24;33.63;;;19.00;;
59512;SDS011;45330;51.634;5.562;2023-01-19T03:29:55;35.30;;;18.60;;
59512;SDS011;45330;51.634;5.562;2023-01-19T03:32:28;33.35;;;18.27;;
59512;SDS011;45330;51.634;5.562;2023-01-19T03:34:59;31.58;;;16.70;;
59512;SDS011;45330;51.634;5.562;2023-01-19T03:37:28;30.60;;;16.58;;
59512;SDS011;45330;51.634;5.562;2023-01-19T03:39:56;30.92;;;16.83;;
59512;SDS011;45330;51.634;5.562;2023-01-19T03:42:21;29.55;;;16.40;;
59512;SDS011;45330;51.634;5.562;2023-01-19T03:44:49;29.70;;;16.13;;
59512;SDS011;45330;51.634;5.562;2023-01-19T03:47:19;28.20;;;16.05;;
59512;SDS011;45330;51.634;5.562;2023-01-19T03:49:46;31.55;;;16.33;;
59512;SDS011;45330;51.634;5.562;2023-01-19T03:52:13;28.02;;;14.88;;
59512;SDS011;45330;51.634;5.562;2023-01-19T03:54:39;28.98;;;14.48;;
59512;SDS011;45330;51.634;5.562;2023-01-19T03:57:05;30.05;;;14.05;;
59512;SDS011;45330;51.634;5.562;2023-01-19T03:59:30;29.90;;;15.00;;
59512;SDS011;45330;51.634;5.562;2023-01-19T04:01:56;28.10;;;15.38;;
59512;SDS011;45330;51.634;5.562;2023-01-19T04:04:21;28.08;;;15.00;;
59512;SDS011;45330;51.634;5.562;2023-01-19T04:06:47;28.48;;;14.60;;
59512;SDS011;45330;51.634;5.562;2023-01-19T04:09:12;27.52;;;14.35;;
59512;SDS011;45330;51.634;5.562;2023-01-19T04:11:37;26.25;;;13.82;;
59512;SDS011;45330;51.634;5.562;2023-01-19T04:14:03;27.88;;;14.38;;
59512;SDS011;45330;51.634;5.562;2023-01-19T04:16:28;27.80;;;13.82;;
59512;SDS011;45330;51.634;5.562;2023-01-19T04:18:54;26.42;;;13.77;;
59512;SDS011;45330;51.634;5.562;2023-01-19T04:21:19;24.70;;;12.65;;
59512;SDS011;45330;51.634;5.562;2023-01-19T04:23:45;23.95;;;11.95;;
59512;SDS011;45330;51.634;5.562;2023-01-19T04:26:10;23.42;;;11.57;;
59512;SDS011;45330;51.634;5.562;2023-01-19T04:28:36;23.60;;;11.50;;
59512;SDS011;45330;51.634;5.562;2023-01-19T04:31:03;23.88;;;11.30;;
59512;SDS011;45330;51.634;5.562;2023-01-19T04:33:29;23.15;;;10.77;;
59512;SDS011;45330;51.634;5.562;2023-01-19T04:35:55;22.63;;;10.27;;
59512;SDS011;45330;51.634;5.562;2023-01-19T04:38:21;23.20;;;9.35;;
59512;SDS011;45330;51.634;5.562;2023-01-19T04:40:48;20.38;;;8.13;;
59512;SDS011;45330;51.634;5.562;2023-01-19T04:43:15;20.77;;;7.85;;
59512;SDS011;45330;51.634;5.562;2023-01-19T04:45:41;19.90;;;7.82;;
59512;SDS011;45330;51.634;5.562;2023-01-19T04:48:08;15.65;;;6.13;;
59512;SDS011;45330;51.634;5.562;2023-01-19T04:50:34;16.33;;;5.80;;
59512;SDS011;45330;51.634;5.562;2023-01-19T04:52:59;16.75;;;5.55;;
59512;SDS011;45330;51.634;5.562;2023-01-19T04:55:26;15.55;;;5.43;;
59512;SDS011;45330;51.634;5.562;2023-01-19T04:57:51;15.73;;;5.68;;
59512;SDS011;45330;51.634;5.562;2023-01-19T05:00:18;16.35;;;5.60;;
59512;SDS011;45330;51.634;5.562;2023-01-19T05:02:45;16.60;;;5.57;;
59512;SDS011;45330;51.634;5.562;2023-01-19T05:05:10;13.90;;;4.72;;
59512;SDS011;45330;51.634;5.562;2023-01-19T05:07:36;16.33;;;5.13;;
59512;SDS011;45330;51.634;5.562;2023-01-19T05:10:02;12.88;;;4.22;;
59512;SDS011;45330;51.634;5.562;2023-01-19T05:12:28;13.73;;;4.07;;
59512;SDS011;45330;51.634;5.562;2023-01-19T05:14:53;14.95;;;4.57;;
59512;SDS011;45330;51.634;5.562;2023-01-19T05:17:19;15.55;;;4.72;;
59512;SDS011;45330;51.634;5.562;2023-01-19T05:19:44;16.95;;;4.63;;
59512;SDS011;45330;51.634;5.562;2023-01-19T05:22:09;16.85;;;5.18;;
59512;SDS011;45330;51.634;5.562;2023-01-19T05:24:35;14.30;;;4.78;;
59512;SDS011;45330;51.634;5.562;2023-01-19T05:27:01;16.67;;;4.80;;
59512;SDS011;45330;51.634;5.562;2023-01-19T05:29:26;17.27;;;5.32;;
59512;SDS011;45330;51.634;5.562;2023-01-19T05:31:51;18.23;;;6.68;;
59512;SDS011;45330;51.634;5.562;2023-01-19T05:34:17;19.73;;;7.20;;
59512;SDS011;45330;51.634;5.562;2023-01-19T05:36:42;21.13;;;8.15;;
59512;SDS011;45330;51.634;5.562;2023-01-19T05:39:08;20.45;;;7.47;;
59512;SDS011;45330;51.634;5.562;2023-01-19T05:41:33;20.33;;;7.78;;
59512;SDS011;45330;51.634;5.562;2023-01-19T05:43:59;21.70;;;8.20;;
59512;SDS011;45330;51.634;5.562;2023-01-19T05:46:24;21.60;;;8.38;;
59512;SDS011;45330;51.634;5.562;2023-01-19T05:48:50;22.42;;;8.13;;
59512;SDS011;45330;51.634;5.562;2023-01-19T05:51:16;24.90;;;8.75;;
59512;SDS011;45330;51.634;5.562;2023-01-19T05:53:41;21.17;;;7.78;;
59512;SDS011;45330;51.634;5.562;2023-01-19T05:56:07;20.42;;;7.45;;
59512;SDS011;45330;51.634;5.562;2023-01-19T05:58:34;23.10;;;8.27;;
59512;SDS011;45330;51.634;5.562;2023-01-19T06:01:04;22.38;;;8.70;;
59512;SDS011;45330;51.634;5.562;2023-01-19T06:03:31;22.52;;;8.38;;
59512;SDS011;45330;51.634;5.562;2023-01-19T06:05:57;24.67;;;9.40;;
59512;SDS011;45330;51.634;5.562;2023-01-19T06:08:23;23.90;;;9.48;;
59512;SDS011;45330;51.634;5.562;2023-01-19T06:10:48;24.90;;;9.75;;
59512;SDS011;45330;51.634;5.562;2023-01-19T06:13:14;24.70;;;10.13;;
59512;SDS011;45330;51.634;5.562;2023-01-19T06:15:39;25.58;;;10.13;;
59512;SDS011;45330;51.634;5.562;2023-01-19T06:18:06;24.42;;;10.65;;
59512;SDS011;45330;51.634;5.562;2023-01-19T06:20:32;27.77;;;11.45;;
59512;SDS011;45330;51.634;5.562;2023-01-19T06:22:57;27.08;;;10.50;;
59512;SDS011;45330;51.634;5.562;2023-01-19T06:25:23;29.30;;;11.35;;
59512;SDS011;45330;51.634;5.562;2023-01-19T06:27:49;26.65;;;11.48;;
59512;SDS011;45330;51.634;5.562;2023-01-19T06:30:15;29.23;;;11.85;;
59512;SDS011;45330;51.634;5.562;2023-01-19T06:32:41;28.52;;;12.02;;
59512;SDS011;45330;51.634;5.562;2023-01-19T06:35:07;29.65;;;12.70;;
59512;SDS011;45330;51.634;5.562;2023-01-19T06:37:33;27.58;;;11.63;;
59512;SDS011;45330;51.634;5.562;2023-01-19T06:39:59;29.85;;;13.27;;
59512;SDS011;45330;51.634;5.562;2023-01-19T06:42:25;30.15;;;12.95;;
59512;SDS011;45330;51.634;5.562;2023-01-19T06:44:50;30.08;;;13.40;;
59512;SDS011;45330;51.634;5.562;2023-01-19T06:47:15;31.27;;;13.95;;
59512;SDS011;45330;51.634;5.562;2023-01-19T06:49:41;33.35;;;15.50;;
59512;SDS011;45330;51.634;5.562;2023-01-19T06:52:10;34.17;;;16.17;;
59512;SDS011;45330;51.634;5.562;2023-01-19T06:54:39;34.33;;;16.95;;
59512;SDS011;45330;51.634;5.562;2023-01-19T06:57:05;37.95;;;19.13;;
59512;SDS011;45330;51.634;5.562;2023-01-19T06:59:30;41.70;;;22.00;;
59512;SDS011;45330;51.634;5.562;2023-01-19T07:01:56;41.28;;;22.30;;
59512;SDS011;45330;51.634;5.562;2023-01-19T07:04:21;43.70;;;25.77;;
59512;SDS011;45330;51.634;5.562;2023-01-19T07:06:47;46.03;;;25.23;;
59512;SDS011;45330;51.634;5.562;2023-01-19T07:09:12;45.58;;;24.23;;
59512;SDS011;45330;51.634;5.562;2023-01-19T07:11:38;42.97;;;25.45;;
59512;SDS011;45330;51.634;5.562;2023-01-19T07:14:03;48.63;;;26.30;;
59512;SDS011;45330;51.634;5.562;2023-01-19T07:16:29;50.65;;;27.85;;
59512;SDS011;45330;51.634;5.562;2023-01-19T07:18:54;49.40;;;29.58;;
59512;SDS011;45330;51.634;5.562;2023-01-19T07:21:20;49.92;;;28.17;;
59512;SDS011;45330;51.634;5.562;2023-01-19T07:23:52;50.72;;;28.77;;
59512;SDS011;45330;51.634;5.562;2023-01-19T07:26:17;53.22;;;30.65;;
59512;SDS011;45330;51.634;5.562;2023-01-19T07:28:45;52.58;;;30.92;;
59512;SDS011;45330;51.634;5.562;2023-01-19T07:31:11;51.53;;;30.08;;
59512;SDS011;45330;51.634;5.562;2023-01-19T07:33:36;56.40;;;32.58;;
59512;SDS011;45330;51.634;5.562;2023-01-19T07:36:02;54.10;;;30.13;;
59512;SDS011;45330;51.634;5.562;2023-01-19T07:38:27;59.55;;;33.58;;
59512;SDS011;45330;51.634;5.562;2023-01-19T07:41:02;59.28;;;32.03;;
59512;SDS011;45330;51.634;5.562;2023-01-19T07:43:30;58.53;;;33.08;;
59512;SDS011;45330;51.634;5.562;2023-01-19T07:45:59;62.75;;;34.28;;
59512;SDS011;45330;51.634;5.562;2023-01-19T07:48:26;65.32;;;36.33;;
59512;SDS011;45330;51.634;5.562;2023-01-19T07:50:52;67.97;;;37.55;;
59512;SDS011;45330;51.634;5.562;2023-01-19T07:53:18;73.80;;;37.22;;
59512;SDS011;45330;51.634;5.562;2023-01-19T07:55:44;73.93;;;38.28;;
59512;SDS011;45330;51.634;5.562;2023-01-19T07:58:09;70.68;;;36.60;;
59512;SDS011;45330;51.634;5.562;2023-01-19T08:00:35;70.57;;;37.17;;
59512;SDS011;45330;51.634;5.562;2023-01-19T08:03:02;67.75;;;37.75;;
59512;SDS011;45330;51.634;5.562;2023-01-19T08:05:28;67.03;;;37.83;;
59512;SDS011;45330;51.634;5.562;2023-01-19T08:07:55;79.50;;;39.30;;
59512;SDS011;45330;51.634;5.562;2023-01-19T08:10:22;66.07;;;37.42;;
59512;SDS011;45330;51.634;5.562;2023-01-19T08:12:51;68.47;;;39.33;;
59512;SDS011;45330;51.634;5.562;2023-01-19T08:15:17;65.63;;;37.03;;
59512;SDS011;45330;51.634;5.562;2023-01-19T08:17:42;66.63;;;38.38;;
59512;SDS011;45330;51.634;5.562;2023-01-19T08:20:08;70.05;;;36.10;;
59512;SDS011;45330;51.634;5.562;2023-01-19T08:22:35;64.97;;;35.33;;
59512;SDS011;45330;51.634;5.562;2023-01-19T08:25:01;67.88;;;35.70;;
59512;SDS011;45330;51.634;5.562;2023-01-19T08:27:26;68.82;;;37.85;;
59512;SDS011;45330;51.634;5.562;2023-01-19T08:29:51;69.22;;;35.85;;
59512;SDS011;45330;51.634;5.562;2023-01-19T08:32:18;69.75;;;39.72;;
59512;SDS011;45330;51.634;5.562;2023-01-19T08:34:43;71.18;;;37.47;;
59512;SDS011;45330;51.634;5.562;2023-01-19T08:37:09;74.18;;;38.17;;
59512;SDS011;45330;51.634;5.562;2023-01-19T08:39:34;74.28;;;37.80;;
59512;SDS011;45330;51.634;5.562;2023-01-19T08:41:59;71.53;;;37.85;;
59512;SDS011;45330;51.634;5.562;2023-01-19T08:44:25;67.32;;;33.38;;
59512;SDS011;45330;51.634;5.562;2023-01-19T08:46:51;64.10;;;33.30;;
59512;SDS011;45330;51.634;5.562;2023-01-19T08:49:16;61.85;;;32.03;;
59512;SDS011;45330;51.634;5.562;2023-01-19T08:51:42;65.63;;;33.15;;
59512;SDS011;45330;51.634;5.562;2023-01-19T08:54:10;60.30;;;32.40;;
59512;SDS011;45330;51.634;5.562;2023-01-19T08:56:36;63.72;;;34.15;;
59512;SDS011;45330;51.634;5.562;2023-01-19T08:59:02;67.55;;;36.08;;
59512;SDS011;45330;51.634;5.562;2023-01-19T09:01:27;67.35;;;36.42;;
59512;SDS011;45330;51.634;5.562;2023-01-19T09:03:52;67.13;;;36.58;;
59512;SDS011;45330;51.634;5.562;2023-01-19T09:06:18;67.63;;;36.42;;
59512;SDS011;45330;51.634;5.562;2023-01-19T09:08:44;64.43;;;36.58;;
59512;SDS011;45330;51.634;5.562;2023-01-19T09:11:11;72.18;;;38.45;;
59512;SDS011;45330;51.634;5.562;2023-01-19T09:13:39;75.38;;;38.78;;
59512;SDS011;45330;51.634;5.562;2023-01-19T09:16:05;85.25;;;40.40;;
59512;SDS011;45330;51.634;5.562;2023-01-19T09:18:35;90.70;;;40.72;;
59512;SDS011;45330;51.634;5.562;2023-01-19T09:21:00;95.50;;;42.90;;
59512;SDS011;45330;51.634;5.562;2023-01-19T09:23:26;95.07;;;43.17;;
59512;SDS011;45330;51.634;5.562;2023-01-19T09:25:56;95.40;;;41.97;;
59512;SDS011;45330;51.634;5.562;2023-01-19T09:28:23;100.03;;;43.95;;
59512;SDS011;45330;51.634;5.562;2023-01-19T09:30:49;91.65;;;41.60;;
59512;SDS011;45330;51.634;5.562;2023-01-19T09:33:16;87.47;;;44.13;;
59512;SDS011;45330;51.634;5.562;2023-01-19T09:35:43;82.60;;;40.53;;
59512;SDS011;45330;51.634;5.562;2023-01-19T09:38:09;85.30;;;40.65;;
59512;SDS011;45330;51.634;5.562;2023-01-19T09:40:40;82.95;;;40.17;;
59512;SDS011;45330;51.634;5.562;2023-01-19T09:45:43;84.97;;;39.47;;
59512;SDS011;45330;51.634;5.562;2023-01-19T09:51:26;83.68;;;38.90;;
59512;SDS011;45330;51.634;5.562;2023-01-19T09:56:29;87.57;;;40.92;;
59512;SDS011;45330;51.634;5.562;2023-01-19T09:58:56;93.60;;;42.38;;
59512;SDS011;45330;51.634;5.562;2023-01-19T10:04:10;92.57;;;39.97;;
59512;SDS011;45330;51.634;5.562;2023-01-19T10:07:08;78.28;;;38.30;;
59512;SDS011;45330;51.634;5.562;2023-01-19T10:09:40;81.72;;;38.38;;
59512;SDS011;45330;51.634;5.562;2023-01-19T10:12:12;78.72;;;36.90;;
59512;SDS011;45330;51.634;5.562;2023-01-19T10:14:47;73.95;;;35.47;;
59512;SDS011;45330;51.634;5.562;2023-01-19T10:17:49;74.38;;;35.60;;
59512;SDS011;45330;51.634;5.562;2023-01-19T10:20:32;76.15;;;35.78;;
59512;SDS011;45330;51.634;5.562;2023-01-19T10:23:04;76.10;;;35.85;;
59512;SDS011;45330;51.634;5.562;2023-01-19T10:25:53;67.15;;;33.40;;
59512;SDS011;45330;51.634;5.562;2023-01-19T10:28:21;69.28;;;35.10;;
59512;SDS011;45330;51.634;5.562;2023-01-19T10:30:49;62.40;;;33.67;;
59512;SDS011;45330;51.634;5.562;2023-01-19T10:33:17;63.15;;;34.42;;
59512;SDS011;45330;51.634;5.562;2023-01-19T10:35:43;61.47;;;33.35;;
59512;SDS011;45330;51.634;5.562;2023-01-19T10:38:11;58.70;;;31.25;;
59512;SDS011;45330;51.634;5.562;2023-01-19T10:40:44;59.17;;;30.88;;
59512;SDS011;45330;51.634;5.562;2023-01-19T10:46:01;61.03;;;30.45;;
59512;SDS011;45330;51.634;5.562;2023-01-19T10:48:39;61.42;;;30.88;;
59512;SDS011;45330;51.634;5.562;2023-01-19T10:51:06;52.55;;;28.42;;
59512;SDS011;45330;51.634;5.562;2023-01-19T10:53:33;60.85;;;29.25;;
59512;SDS011;45330;51.634;5.562;2023-01-19T10:58:59;58.53;;;29.30;;
59512;SDS011;45330;51.634;5.562;2023-01-19T11:01:26;57.70;;;28.40;;
59512;SDS011;45330;51.634;5.562;2023-01-19T11:03:54;52.33;;;28.90;;
59512;SDS011;45330;51.634;5.562;2023-01-19T11:06:28;50.88;;;27.17;;
59512;SDS011;45330;51.634;5.562;2023-01-19T11:11:43;50.55;;;27.33;;
59512;SDS011;45330;51.634;5.562;2023-01-19T11:14:12;53.00;;;26.95;;
59512;SDS011;45330;51.634;5.562;2023-01-19T11:16:43;51.45;;;28.05;;
59512;SDS011;45330;51.634;5.562;2023-01-19T11:19:16;46.13;;;26.38;;
59512;SDS011;45330;51.634;5.562;2023-01-19T11:21:44;47.67;;;25.38;;
59512;SDS011;45330;51.634;5.562;2023-01-19T11:24:09;47.15;;;26.10;;
59512;SDS011;45330;51.634;5.562;2023-01-19T11:26:39;48.80;;;25.55;;
59512;SDS011;45330;51.634;5.562;2023-01-19T11:29:19;44.72;;;23.52;;
59512;SDS011;45330;51.634;5.562;2023-01-19T11:31:52;44.55;;;24.98;;
59512;SDS011;45330;51.634;5.562;2023-01-19T11:36:57;48.55;;;25.40;;
59512;SDS011;45330;51.634;5.562;2023-01-19T11:39:29;47.90;;;25.98;;
59512;SDS011;45330;51.634;5.562;2023-01-19T11:41:57;43.97;;;23.73;;
59512;SDS011;45330;51.634;5.562;2023-01-19T11:47:00;41.35;;;22.92;;
59512;SDS011;45330;51.634;5.562;2023-01-19T11:52:31;45.45;;;24.25;;
59512;SDS011;45330;51.634;5.562;2023-01-19T11:55:11;42.63;;;22.67;;
59512;SDS011;45330;51.634;5.562;2023-01-19T11:57:46;47.28;;;23.08;;
59512;SDS011;45330;51.634;5.562;2023-01-19T12:00:18;40.83;;;22.65;;
59512;SDS011;45330;51.634;5.562;2023-01-19T12:02:48;41.05;;;23.00;;
59512;SDS011;45330;51.634;5.562;2023-01-19T12:05:19;42.87;;;22.23;;
59512;SDS011;45330;51.634;5.562;2023-01-19T12:07:46;38.90;;;20.40;;
59512;SDS011;45330;51.634;5.562;2023-01-19T12:10:20;40.97;;;20.65;;
59512;SDS011;45330;51.634;5.562;2023-01-19T12:12:50;40.30;;;20.77;;
59512;SDS011;45330;51.634;5.562;2023-01-19T12:18:00;40.92;;;23.33;;
59512;SDS011;45330;51.634;5.562;2023-01-19T12:28:44;37.83;;;20.45;;
59512;SDS011;45330;51.634;5.562;2023-01-19T12:31:13;36.67;;;18.88;;
59512;SDS011;45330;51.634;5.562;2023-01-19T12:33:40;38.75;;;20.38;;
59512;SDS011;45330;51.634;5.562;2023-01-19T12:41:18;36.08;;;18.77;;
59512;SDS011;45330;51.634;5.562;2023-01-19T12:43:44;33.40;;;18.27;;
59512;SDS011;45330;51.634;5.562;2023-01-19T12:46:18;36.30;;;18.40;;
59512;SDS011;45330;51.634;5.562;2023-01-19T12:48:45;40.33;;;19.60;;
59512;SDS011;45330;51.634;5.562;2023-01-19T12:51:21;35.97;;;18.95;;
59512;SDS011;45330;51.634;5.562;2023-01-19T12:53:53;35.05;;;18.67;;
59512;SDS011;45330;51.634;5.562;2023-01-19T12:56:30;39.58;;;18.90;;
59512;SDS011;45330;51.634;5.562;2023-01-19T12:58:58;36.60;;;18.45;;
59512;SDS011;45330;51.634;5.562;2023-01-19T13:01:24;37.35;;;17.42;;
59512;SDS011;45330;51.634;5.562;2023-01-19T13:04:04;33.05;;;17.10;;
59512;SDS011;45330;51.634;5.562;2023-01-19T13:09:30;30.75;;;15.70;;
59512;SDS011;45330;51.634;5.562;2023-01-19T13:12:09;31.42;;;16.25;;
59512;SDS011;45330;51.634;5.562;2023-01-19T13:14:37;36.28;;;16.48;;
59512;SDS011;45330;51.634;5.562;2023-01-19T13:17:04;34.42;;;17.17;;
59512;SDS011;45330;51.634;5.562;2023-01-19T13:19:41;32.10;;;17.40;;
59512;SDS011;45330;51.634;5.562;2023-01-19T13:25:13;33.78;;;16.60;;
59512;SDS011;45330;51.634;5.562;2023-01-19T13:27:50;32.33;;;17.85;;
59512;SDS011;45330;51.634;5.562;2023-01-19T13:30:16;35.05;;;17.25;;
59512;SDS011;45330;51.634;5.562;2023-01-19T13:32:45;36.63;;;18.48;;
59512;SDS011;45330;51.634;5.562;2023-01-19T13:35:12;32.28;;;17.20;;
59512;SDS011;45330;51.634;5.562;2023-01-19T13:37:42;33.13;;;17.92;;
59512;SDS011;45330;51.634;5.562;2023-01-19T13:40:22;33.25;;;17.85;;
59512;SDS011;45330;51.634;5.562;2023-01-19T13:42:52;34.67;;;18.00;;
59512;SDS011;45330;51.634;5.562;2023-01-19T13:47:56;37.42;;;18.98;;
59512;SDS011;45330;51.634;5.562;2023-01-19T13:50:27;37.08;;;20.48;;
59512;SDS011;45330;51.634;5.562;2023-01-19T13:52:55;37.03;;;20.85;;
59512;SDS011;45330;51.634;5.562;2023-01-19T13:55:22;35.40;;;19.52;;
59512;SDS011;45330;51.634;5.562;2023-01-19T13:57:49;35.80;;;19.33;;
59512;SDS011;45330;51.634;5.562;2023-01-19T14:05:20;36.55;;;19.70;;
59512;SDS011;45330;51.634;5.562;2023-01-19T14:15:57;36.40;;;20.77;;
59512;SDS011;45330;51.634;5.562;2023-01-19T14:18:25;33.55;;;19.85;;
59512;SDS011;45330;51.634;5.562;2023-01-19T14:23:42;37.38;;;21.17;;
59512;SDS011;45330;51.634;5.562;2023-01-19T14:36:53;41.10;;;22.08;;
59512;SDS011;45330;51.634;5.562;2023-01-19T14:39:20;43.08;;;23.83;;
59512;SDS011;45330;51.634;5.562;2023-01-19T14:41:48;38.80;;;22.58;;
59512;SDS011;45330;51.634;5.562;2023-01-19T14:44:23;38.55;;;22.67;;
59512;SDS011;45330;51.634;5.562;2023-01-19T14:46:53;38.00;;;20.67;;
59512;SDS011;45330;51.634;5.562;2023-01-19T14:49:38;40.75;;;22.38;;
59512;SDS011;45330;51.634;5.562;2023-01-19T14:52:20;38.88;;;20.67;;
59512;SDS011;45330;51.634;5.562;2023-01-19T14:54:50;39.05;;;21.38;;
59512;SDS011;45330;51.634;5.562;2023-01-19T14:57:17;35.63;;;20.55;;
59512;SDS011;45330;51.634;5.562;2023-01-19T14:59:43;36.05;;;20.65;;
59512;SDS011;45330;51.634;5.562;2023-01-19T15:02:12;37.60;;;20.70;;
59512;SDS011;45330;51.634;5.562;2023-01-19T15:04:37;37.20;;;21.58;;
59512;SDS011;45330;51.634;5.562;2023-01-19T15:07:03;39.45;;;22.40;;
59512;SDS011;45330;51.634;5.562;2023-01-19T15:09:28;36.42;;;20.38;;
59512;SDS011;45330;51.634;5.562;2023-01-19T15:11:54;38.60;;;21.45;;
59512;SDS011;45330;51.634;5.562;2023-01-19T15:14:19;36.10;;;20.30;;
59512;SDS011;45330;51.634;5.562;2023-01-19T15:16:45;39.45;;;20.95;;
59512;SDS011;45330;51.634;5.562;2023-01-19T15:19:12;39.80;;;19.83;;
59512;SDS011;45330;51.634;5.562;2023-01-19T15:21:40;37.25;;;21.17;;
59512;SDS011;45330;51.634;5.562;2023-01-19T15:24:07;35.95;;;20.20;;
59512;SDS011;45330;51.634;5.562;2023-01-19T15:26:34;38.20;;;19.42;;
59512;SDS011;45330;51.634;5.562;2023-01-19T15:29:01;34.38;;;20.23;;
59512;SDS011;45330;51.634;5.562;2023-01-19T15:31:27;36.28;;;20.25;;
59512;SDS011;45330;51.634;5.562;2023-01-19T15:33:52;36.95;;;19.73;;
59512;SDS011;45330;51.634;5.562;2023-01-19T15:36:19;37.88;;;19.98;;
59512;SDS011;45330;51.634;5.562;2023-01-19T15:38:46;39.47;;;20.13;;
59512;SDS011;45330;51.634;5.562;2023-01-19T15:41:16;37.53;;;20.20;;
59512;SDS011;45330;51.634;5.562;2023-01-19T15:43:46;38.83;;;20.27;;
59512;SDS011;45330;51.634;5.562;2023-01-19T15:46:17;36.25;;;19.65;;
59512;SDS011;45330;51.634;5.562;2023-01-19T15:48:45;36.92;;;20.65;;
59512;SDS011;45330;51.634;5.562;2023-01-19T15:51:11;37.85;;;20.25;;
59512;SDS011;45330;51.634;5.562;2023-01-19T15:53:38;36.38;;;20.60;;
59512;SDS011;45330;51.634;5.562;2023-01-19T15:56:04;34.03;;;18.67;;
59512;SDS011;45330;51.634;5.562;2023-01-19T15:58:30;35.70;;;19.55;;
59512;SDS011;45330;51.634;5.562;2023-01-19T16:00:56;36.42;;;19.98;;
59512;SDS011;45330;51.634;5.562;2023-01-19T16:03:22;35.67;;;20.65;;
59512;SDS011;45330;51.634;5.562;2023-01-19T16:05:49;40.38;;;20.40;;
59512;SDS011;45330;51.634;5.562;2023-01-19T16:08:15;37.17;;;20.25;;